Cowan Heights, California
Current Conditions -  °F | °C
As of 12:53 PM on Monday 22 Dec 2014 (Local Time) from KSNA Reporting Station
Clear Clear  
Wind Chill: 75°   Ceiling: Unl
Heat Index: 75°   Visibility: 8mi
Dew Point: 50°   Wind: 3mph
Humidity: 41%   Direction: 290°WNW
Pressure: 29.97"   Gusts: NA
Location:  33.7594°N, 117.781°W
Report Text: KSNA 222053Z 29003KT 8SM CLR 24/10 A2997 RMK AO2 SLP148 T02390100 56029
Loading
Personal Weather Stations






























Interactive Weather Map New forecast layout! Learn more

10-Day Weather Forecast

Advertisements
Track Severe Weather on mobile